Time,TemperatureF,DewpointF,PressureIn,WindDirection,WindDirectionDegrees,WindSpeedMPH,WindSpeedGustMPH,Humidity,HourlyPrecipIn,Conditions,Clouds,dailyrainin,SolarRadiationWatts/m^2,SoftwareType,DateUTC
2013-02-23 00:08:00,28.5,25.0,30.19,NW,319,0.0,-999.0,88,-99.99,,,0.00,0,weatherlink.com 1.10,2013-02-23 06:08:00,
2013-02-23 00:23:00,28.1,25.0,30.19,NW,319,0.0,-999.0,87,-99.99,,,0.00,0,weatherlink.com 1.10,2013-02-23 06:23:00,
2013-02-23 00:38:00,27.9,24.0,30.19,NW,319,0.0,-999.0,86,-99.99,,,0.00,0,weatherlink.com 1.10,2013-02-23 06:38:00,
2013-02-23 00:53:00,27.6,24.0,30.19,NW,319,0.0,-999.0,86,-99.99,,,0.00,0,weatherlink.com 1.10,2013-02-23 06:53:00,
2013-02-23 01:08:00,27.5,24.0,30.20,NW,319,0.0,-999.0,86,-99.99,,,0.00,0,weatherlink.com 1.10,2013-02-23 07:08:00,
2013-02-23 01:23:00,27.4,24.0,30.20,NW,319,0.0,-999.0,85,-99.99,,,0.00,0,weatherlink.com 1.10,2013-02-23 07:23:00,
2013-02-23 01:38:00,27.3,23.0,30.20,NW,319,0.0,-999.0,85,-99.99,,,0.00,0,weatherlink.com 1.10,2013-02-23 07:38:00,
2013-02-23 01:53:00,27.3,23.0,30.19,NW,319,0.0,-999.0,85,-99.99,,,0.00,0,weatherlink.com 1.10,2013-02-23 07:53:00,
2013-02-23 02:08:00,27.3,23.0,30.18,NW,319,0.0,-999.0,84,-99.99,,,0.00,0,weatherlink.com 1.10,2013-02-23 08:08:00,
2013-02-23 02:23:00,27.3,23.0,30.18,NW,319,0.0,-999.0,84,-99.99,,,0.00,0,weatherlink.com 1.10,2013-02-23 08:23:00,
2013-02-23 02:38:00,27.3,23.0,30.17,NW,319,0.0,-999.0,84,-99.99,,,0.00,0,weatherlink.com 1.10,2013-02-23 08:38:00,
2013-02-23 02:53:00,27.3,23.0,30.16,NW,319,0.0,-999.0,84,-99.99,,,0.00,0,weatherlink.com 1.10,2013-02-23 08:53:00,
2013-02-23 03:08:00,27.1,24.0,30.16,NW,319,0.0,-999.0,86,-99.99,,,0.00,0,weatherlink.com 1.10,2013-02-23 09:08:00,
2013-02-23 03:23:00,26.3,23.0,30.16,NW,319,2.0,-999.0,88,-99.99,,,0.00,0,weatherlink.com 1.10,2013-02-23 09:23:00,
2013-02-23 03:38:00,25.7,23.0,30.14,NW,319,2.0,-999.0,89,-99.99,,,0.00,0,weatherlink.com 1.10,2013-02-23 09:38:00,
2013-02-23 03:54:00,25.6,23.0,30.15,NW,319,4.0,-999.0,90,-99.99,,,0.00,0,weatherlink.com 1.10,2013-02-23 09:54:00,
2013-02-23 04:08:00,25.4,23.0,30.14,NW,319,4.0,-999.0,89,-99.99,,,0.00,0,weatherlink.com 1.10,2013-02-23 10:08:00,
2013-02-23 04:24:00,25.2,22.0,30.15,NW,319,6.0,-999.0,89,-99.99,,,0.00,0,weatherlink.com 1.10,2013-02-23 10:24:00,
2013-02-23 04:38:00,25.1,22.0,30.15,NW,319,5.0,-999.0,89,-99.99,,,0.00,0,weatherlink.com 1.10,2013-02-23 10:38:00,
2013-02-23 04:53:00,24.9,22.0,30.15,NW,319,4.0,-999.0,90,-99.99,,,0.00,0,weatherlink.com 1.10,2013-02-23 10:53:00,
2013-02-23 05:08:00,24.8,22.0,30.16,NW,319,5.0,-999.0,90,-99.99,,,0.00,0,weatherlink.com 1.10,2013-02-23 11:08:00,
2013-02-23 05:23:00,24.6,22.0,30.16,NW,319,4.0,-999.0,90,-99.99,,,0.00,0,weatherlink.com 1.10,2013-02-23 11:23:00,
2013-02-23 05:38:00,24.6,22.0,30.15,NW,319,7.0,-999.0,91,-99.99,,,0.00,0,weatherlink.com 1.10,2013-02-23 11:38:00,
2013-02-23 05:54:00,24.6,22.0,30.14,NW,319,6.0,-999.0,91,-99.99,,,0.00,0,weatherlink.com 1.10,2013-02-23 11:54:00,
2013-02-23 06:09:00,24.4,22.0,30.16,NW,319,5.0,-999.0,89,-99.99,,,0.00,0,weatherlink.com 1.10,2013-02-23 12:09:00,
2013-02-23 06:24:00,24.5,22.0,30.14,NW,319,2.0,-999.0,90,-99.99,,,0.00,0,weatherlink.com 1.10,2013-02-23 12:24:00,
2013-02-23 06:39:00,24.5,22.0,30.14,NW,319,4.0,-999.0,89,-99.99,,,0.00,0,weatherlink.com 1.10,2013-02-23 12:39:00,
2013-02-23 06:54:00,24.6,22.0,30.14,NW,319,2.0,-999.0,89,-99.99,,,0.00,5,weatherlink.com 1.10,2013-02-23 12:54:00,
2013-02-23 07:09:00,24.4,22.0,30.14,NW,319,4.0,-999.0,90,-99.99,,,0.00,16,weatherlink.com 1.10,2013-02-23 13:09:00,
2013-02-23 07:24:00,24.3,22.0,30.14,NW,319,2.0,-999.0,90,-99.99,,,0.00,28,weatherlink.com 1.10,2013-02-23 13:24:00,
2013-02-23 07:39:00,24.4,22.0,30.14,NW,319,0.0,-999.0,90,-99.99,,,0.00,60,weatherlink.com 1.10,2013-02-23 13:39:00,
2013-02-23 07:54:00,24.5,22.0,30.14,NW,319,1.0,-999.0,91,-99.99,,,0.00,97,weatherlink.com 1.10,2013-02-23 13:54:00,
2013-02-23 08:09:00,24.8,22.0,30.16,NW,319,2.0,-999.0,90,-99.99,,,0.00,65,weatherlink.com 1.10,2013-02-23 14:09:00,
2013-02-23 08:24:00,25.4,23.0,30.16,NW,319,0.0,-999.0,89,-99.99,,,0.00,121,weatherlink.com 1.10,2013-02-23 14:24:00,
2013-02-23 08:39:00,26.0,23.0,30.16,NW,319,0.0,-999.0,88,-99.99,,,0.00,77,weatherlink.com 1.10,2013-02-23 14:39:00,
2013-02-23 08:54:00,26.9,23.0,30.16,NW,319,0.0,-999.0,86,-99.99,,,0.00,272,weatherlink.com 1.10,2013-02-23 14:54:00,
2013-02-23 09:09:00,28.2,23.0,30.16,NW,319,0.0,-999.0,82,-99.99,,,0.00,385,weatherlink.com 1.10,2013-02-23 15:09:00,
2013-02-23 09:24:00,29.0,24.0,30.16,NW,319,2.0,-999.0,82,-99.99,,,0.00,420,weatherlink.com 1.10,2013-02-23 15:24:00,
2013-02-23 09:39:00,29.4,24.0,30.16,NW,319,4.0,-999.0,79,-99.99,,,0.00,466,weatherlink.com 1.10,2013-02-23 15:39:00,
2013-02-23 09:54:00,29.7,24.0,30.16,NW,319,0.0,-999.0,79,-99.99,,,0.00,512,weatherlink.com 1.10,2013-02-23 15:54:00,
2013-02-23 10:09:00,30.6,24.0,30.16,NW,319,0.0,-999.0,76,-99.99,,,0.00,550,weatherlink.com 1.10,2013-02-23 16:09:00,
2013-02-23 10:24:00,31.9,25.0,30.17,NW,319,0.0,-999.0,74,-99.99,,,0.00,582,weatherlink.com 1.10,2013-02-23 16:24:00,
2013-02-23 10:39:00,32.4,25.0,30.16,NW,319,0.0,-999.0,73,-99.99,,,0.00,612,weatherlink.com 1.10,2013-02-23 16:39:00,
2013-02-23 10:55:00,33.2,26.0,30.16,NW,319,5.0,-999.0,74,-99.99,,,0.00,629,weatherlink.com 1.10,2013-02-23 16:55:00,
2013-02-23 11:10:00,33.8,26.0,30.16,NW,319,0.0,-999.0,74,-99.99,,,0.00,657,weatherlink.com 1.10,2013-02-23 17:10:00,
2013-02-23 11:25:00,34.1,25.0,30.16,NW,319,2.0,-999.0,68,-99.99,,,0.00,677,weatherlink.com 1.10,2013-02-23 17:25:00,
2013-02-23 11:40:00,35.0,25.0,30.15,NW,319,7.0,-999.0,68,-99.99,,,0.00,687,weatherlink.com 1.10,2013-02-23 17:40:00,
2013-02-23 11:55:00,35.5,25.0,30.15,NW,319,0.0,-999.0,67,-99.99,,,0.00,708,weatherlink.com 1.10,2013-02-23 17:55:00,
2013-02-23 12:10:00,36.0,26.0,30.14,NW,319,4.0,-999.0,67,-99.99,,,0.00,729,weatherlink.com 1.10,2013-02-23 18:10:00,
2013-02-23 12:25:00,36.7,26.0,30.14,NW,319,1.0,-999.0,66,-99.99,,,0.00,733,weatherlink.com 1.10,2013-02-23 18:25:00,
2013-02-23 12:40:00,37.5,26.0,30.12,NW,319,4.0,-999.0,63,-99.99,,,0.00,708,weatherlink.com 1.10,2013-02-23 18:40:00,
2013-02-23 12:55:00,38.5,28.0,30.12,NW,319,5.0,-999.0,65,-99.99,,,0.00,705,weatherlink.com 1.10,2013-02-23 18:55:00,
2013-02-23 13:10:00,38.6,25.0,30.11,NW,319,6.0,-999.0,59,-99.99,,,0.00,693,weatherlink.com 1.10,2013-02-23 19:10:00,
2013-02-23 13:25:00,39.6,27.0,30.11,NW,319,4.0,-999.0,60,-99.99,,,0.00,682,weatherlink.com 1.10,2013-02-23 19:25:00,
2013-02-23 13:40:00,40.4,26.0,30.10,NW,319,7.0,-999.0,57,-99.99,,,0.00,666,weatherlink.com 1.10,2013-02-23 19:40:00,
2013-02-23 13:55:00,40.5,26.0,30.10,NW,313,5.0,-999.0,56,-99.99,,,0.00,693,weatherlink.com 1.10,2013-02-23 19:55:00,
2013-02-23 14:10:00,40.6,24.0,30.10,WNW,299,9.0,-999.0,53,-99.99,,,0.00,515,weatherlink.com 1.10,2013-02-23 20:10:00,
2013-02-23 14:25:00,40.7,24.0,30.09,NW,310,7.0,-999.0,51,-99.99,,,0.00,336,weatherlink.com 1.10,2013-02-23 20:25:00,
2013-02-23 14:40:00,40.7,25.0,30.09,NW,306,4.0,-999.0,53,-99.99,,,0.00,267,weatherlink.com 1.10,2013-02-23 20:40:00,
2013-02-23 14:55:00,40.7,25.0,30.09,NW,309,7.0,-999.0,53,-99.99,,,0.00,255,weatherlink.com 1.10,2013-02-23 20:55:00,
2013-02-23 15:10:00,40.9,25.0,30.08,NW,309,5.0,-999.0,54,-99.99,,,0.00,227,weatherlink.com 1.10,2013-02-23 21:10:00,
2013-02-23 15:25:00,41.3,25.0,30.08,NW,309,6.0,-999.0,53,-99.99,,,0.00,230,weatherlink.com 1.10,2013-02-23 21:25:00,
2013-02-23 15:40:00,41.7,26.0,30.08,NW,309,0.0,-999.0,55,-99.99,,,0.00,162,weatherlink.com 1.10,2013-02-23 21:40:00,
2013-02-23 15:55:00,41.6,25.0,30.08,NW,309,0.0,-999.0,53,-99.99,,,0.00,179,weatherlink.com 1.10,2013-02-23 21:55:00,
2013-02-23 16:10:00,41.8,25.0,30.07,NW,309,4.0,-999.0,51,-99.99,,,0.00,211,weatherlink.com 1.10,2013-02-23 22:10:00,
2013-02-23 16:25:00,42.3,25.0,30.06,NW,309,0.0,-999.0,50,-99.99,,,0.00,206,weatherlink.com 1.10,2013-02-23 22:25:00,
2013-02-23 16:40:00,42.3,25.0,30.07,NW,309,0.0,-999.0,51,-99.99,,,0.00,105,weatherlink.com 1.10,2013-02-23 22:40:00,
2013-02-23 16:55:00,42.5,25.0,30.07,NW,309,0.0,-999.0,50,-99.99,,,0.00,120,weatherlink.com 1.10,2013-02-23 22:55:00,
2013-02-23 17:10:00,43.0,25.0,30.06,NW,309,0.0,-999.0,50,-99.99,,,0.00,81,weatherlink.com 1.10,2013-02-23 23:10:00,
2013-02-23 17:25:00,43.1,24.0,30.06,NW,309,0.0,-999.0,48,-99.99,,,0.00,21,weatherlink.com 1.10,2013-02-23 23:25:00,
2013-02-23 17:40:00,43.3,24.0,30.06,NW,309,0.0,-999.0,47,-99.99,,,0.00,14,weatherlink.com 1.10,2013-02-23 23:40:00,
2013-02-23 17:55:00,43.2,25.0,30.07,NW,309,0.0,-999.0,48,-99.99,,,0.00,5,weatherlink.com 1.10,2013-02-23 23:55:00,
2013-02-23 18:10:00,42.8,26.0,30.07,NW,309,0.0,-999.0,52,-99.99,,,0.00,0,weatherlink.com 1.10,2013-02-24 00:10:00,
2013-02-23 18:25:00,42.2,25.0,30.07,NW,309,4.0,-999.0,51,-99.99,,,0.00,0,weatherlink.com 1.10,2013-02-24 00:25:00,
2013-02-23 18:40:00,41.8,26.0,30.08,NW,309,0.0,-999.0,53,-99.99,,,0.00,0,weatherlink.com 1.10,2013-02-24 00:40:00,
2013-02-23 18:56:00,41.5,26.0,30.08,NW,309,0.0,-999.0,55,-99.99,,,0.00,0,weatherlink.com 1.10,2013-02-24 00:56:00,
2013-02-23 19:11:00,41.0,27.0,30.09,NW,309,0.0,-999.0,59,-99.99,,,0.00,0,weatherlink.com 1.10,2013-02-24 01:11:00,
2013-02-23 19:26:00,40.1,31.0,30.10,NW,309,0.0,-999.0,70,-99.99,,,0.00,0,weatherlink.com 1.10,2013-02-24 01:26:00,
2013-02-23 19:41:00,40.0,28.0,30.09,NW,309,0.0,-999.0,63,-99.99,,,0.00,0,weatherlink.com 1.10,2013-02-24 01:41:00,
2013-02-23 19:56:00,39.7,31.0,30.09,NW,309,0.0,-999.0,71,-99.99,,,0.00,0,weatherlink.com 1.10,2013-02-24 01:56:00,
2013-02-23 20:11:00,38.0,31.0,30.09,NW,309,0.0,-999.0,77,-99.99,,,0.00,0,weatherlink.com 1.10,2013-02-24 02:11:00,
2013-02-23 20:26:00,37.5,28.0,30.09,NW,309,0.0,-999.0,68,-99.99,,,0.00,0,weatherlink.com 1.10,2013-02-24 02:26:00,
2013-02-23 20:41:00,38.3,27.0,30.09,NW,309,0.0,-999.0,64,-99.99,,,0.00,0,weatherlink.com 1.10,2013-02-24 02:41:00,
2013-02-23 20:56:00,37.7,29.0,30.10,NW,309,0.0,-999.0,71,-99.99,,,0.00,0,weatherlink.com 1.10,2013-02-24 02:56:00,
2013-02-23 21:11:00,37.3,28.0,30.10,NW,309,0.0,-999.0,69,-99.99,,,0.00,0,weatherlink.com 1.10,2013-02-24 03:11:00,
2013-02-23 21:26:00,36.8,27.0,30.11,NW,309,0.0,-999.0,68,-99.99,,,0.00,0,weatherlink.com 1.10,2013-02-24 03:26:00,
2013-02-23 21:41:00,36.1,30.0,30.12,NW,309,0.0,-999.0,78,-99.99,,,0.00,0,weatherlink.com 1.10,2013-02-24 03:41:00,
2013-02-23 21:56:00,35.5,29.0,30.11,NW,309,0.0,-999.0,78,-99.99,,,0.00,0,weatherlink.com 1.10,2013-02-24 03:56:00,
2013-02-23 22:11:00,34.8,29.0,30.10,NW,309,0.0,-999.0,80,-99.99,,,0.00,0,weatherlink.com 1.10,2013-02-24 04:11:00,
2013-02-23 22:26:00,33.7,29.0,30.10,NW,309,0.0,-999.0,82,-99.99,,,0.00,0,weatherlink.com 1.10,2013-02-24 04:26:00,
2013-02-23 22:41:00,33.4,30.0,30.10,NW,309,0.0,-999.0,86,-99.99,,,0.00,0,weatherlink.com 1.10,2013-02-24 04:41:00,
2013-02-23 22:56:00,32.8,29.0,30.09,NW,309,0.0,-999.0,87,-99.99,,,0.00,0,weatherlink.com 1.10,2013-02-24 04:56:00,
2013-02-23 23:11:00,32.6,30.0,30.10,NW,309,0.0,-999.0,88,-99.99,,,0.00,0,weatherlink.com 1.10,2013-02-24 05:11:00,
2013-02-23 23:26:00,32.6,30.0,30.10,NW,309,0.0,-999.0,89,-99.99,,,0.00,0,weatherlink.com 1.10,2013-02-24 05:26:00,
2013-02-23 23:41:00,33.1,30.0,30.10,NW,309,0.0,-999.0,89,-99.99,,,0.00,0,weatherlink.com 1.10,2013-02-24 05:41:00,
2013-02-23 23:56:00,32.9,30.0,30.11,NW,309,0.0,-999.0,88,-99.99,,,0.00,0,weatherlink.com 1.10,2013-02-24 05:56:00,